ORD weather

Chicago O'Hare International Airport
Chicago, Illinois, United States

Public forecast

Using degrees Fahrenheit for public forecast. Weather courtesy of forecast.io.

METAR (pilot weather report)

Retrieved 2017/03/28 12:51 UTC (59 minutes ago):

KORD 281251Z 03010KT 10SM BKN012 OVC028 05/02 A3008

TAF (pilot weather forecast)

Retrieved 2017/03/28 12:24 UTC (1 hour ago):

TAF KORD 281121Z 2812/2918 02010KT P6SM SCT012 OVC025 TEMPO 2812/2814 OVC012 FM290000 04007KT P6SM FEW009 SCT030 BKN200 FM291400 07011KT P6SM BKN180